Time;durP1;ratioP1;P1;durP2;ratioP2;P2;SDS_P1;SDS_P2;PMS_P1;PMS_P2;Temp;Humidity;BMP_temperature;BMP_pressure;BME280_temperature;BME280_humidity;BME280_pressure;Samples;Min_cycle;Max_cycle;Signal;HPM_P1;HPM_P2
2023/10/01 00:00:12;;;;;;;16.23;5.95;;;11.00;99.90;;;;;;5023747;28;20030;-80
2023/10/01 00:02:40;;;;;;;15.48;5.80;;;11.00;99.90;;;;;;5022368;28;20126;-80
2023/10/01 00:05:06;;;;;;;20.45;6.13;;;11.00;99.90;;;;;;5055628;28;20022;-80
2023/10/01 00:07:37;;;;;;;20.10;7.45;;;11.00;99.90;;;;;;5022685;28;20026;-79
2023/10/01 00:10:11;;;;;;;19.20;6.68;;;11.00;99.90;;;;;;5024256;28;20025;-82
2023/10/01 00:12:48;;;;;;;16.95;5.53;;;11.00;99.90;;;;;;5024864;28;20073;-81
2023/10/01 00:15:16;;;;;;;17.52;5.82;;;10.90;99.90;;;;;;5061348;28;20030;-81
2023/10/01 00:17:47;;;;;;;19.13;6.32;;;10.90;99.90;;;;;;5030843;28;20097;-81
2023/10/01 00:20:18;;;;;;;18.88;6.22;;;10.90;99.90;;;;;;5027108;28;20136;-78
2023/10/01 00:22:46;;;;;;;19.10;6.90;;;10.90;99.90;;;;;;5026948;28;20018;-78
2023/10/01 00:25:12;;;;;;;19.63;6.78;;;10.80;99.90;;;;;;5026425;28;20026;-79
2023/10/01 00:27:38;;;;;;;16.75;6.25;;;10.80;99.90;;;;;;5024359;28;20045;-78
2023/10/01 00:30:09;;;;;;;23.38;6.90;;;10.70;99.90;;;;;;5024343;28;20514;-77
2023/10/01 00:32:36;;;;;;;18.38;6.05;;;10.70;99.90;;;;;;5027342;28;20060;-78
2023/10/01 00:35:06;;;;;;;13.93;5.65;;;10.60;99.90;;;;;;5025473;28;20391;-79
2023/10/01 00:37:33;;;;;;;19.85;6.15;;;10.70;99.90;;;;;;5027412;28;20053;-81
2023/10/01 00:39:59;;;;;;;22.55;6.20;;;10.70;99.90;;;;;;5060382;28;20033;-80
2023/10/01 00:42:32;;;;;;;16.98;6.05;;;10.60;99.90;;;;;;5062470;28;20061;-80
2023/10/01 00:44:58;;;;;;;21.52;7.18;;;10.50;99.90;;;;;;5028602;28;20022;-79
2023/10/01 00:47:26;;;;;;;21.67;6.85;;;10.50;99.90;;;;;;5029847;28;20464;-80
2023/10/01 00:49:52;;;;;;;18.38;6.82;;;10.40;99.90;;;;;;5045306;22;20046;-81
2023/10/01 00:52:19;;;;;;;19.65;6.68;;;10.50;99.90;;;;;;5036982;28;20030;-81
2023/10/01 00:54:48;;;;;;;14.43;6.47;;;10.50;99.90;;;;;;5037024;28;20480;-81
2023/10/01 00:57:15;;;;;;;19.02;5.90;;;10.50;99.90;;;;;;5021205;28;20026;-82
2023/10/01 00:59:43;;;;;;;19.92;6.97;;;10.50;99.90;;;;;;5022028;28;20022;-81
2023/10/01 01:02:10;;;;;;;15.75;5.55;;;10.50;99.90;;;;;;5018106;28;20030;-81
2023/10/01 01:04:44;;;;;;;15.43;6.20;;;10.60;99.90;;;;;;5018532;28;20026;-82
2023/10/01 01:07:19;;;;;;;15.48;6.75;;;10.60;99.90;;;;;;5016237;28;20018;-80
2023/10/01 01:09:46;;;;;;;18.88;6.15;;;10.60;99.90;;;;;;5014543;28;20026;-81
2023/10/01 01:12:18;;;;;;;15.27;6.35;;;10.60;99.90;;;;;;5016544;28;20026;-81
2023/10/01 01:14:44;;;;;;;18.73;6.25;;;10.60;99.90;;;;;;5022924;28;20084;-81
2023/10/01 01:17:14;;;;;;;17.65;5.95;;;10.50;99.90;;;;;;5014299;28;20400;-80
2023/10/01 01:19:42;;;;;;;16.60;6.50;;;10.50;99.90;;;;;;5016273;28;20477;-81
2023/10/01 01:22:16;;;;;;;17.55;5.55;;;10.40;99.90;;;;;;5040042;28;20077;-79
2023/10/01 01:24:42;;;;;;;12.93;5.68;;;10.40;99.90;;;;;;5038861;28;20042;-80
2023/10/01 01:27:07;;;;;;;18.08;6.93;;;10.40;99.90;;;;;;5038986;28;20034;-81
2023/10/01 01:29:44;;;;;;;16.48;6.78;;;10.40;99.90;;;;;;5039467;28;20073;-80
2023/10/01 01:32:16;;;;;;;15.27;6.68;;;10.30;99.90;;;;;;5038327;28;20034;-82
2023/10/01 01:34:44;;;;;;;17.10;6.97;;;10.30;99.90;;;;;;5036185;28;20029;-82
2023/10/01 01:37:19;;;;;;;14.85;6.28;;;10.30;99.90;;;;;;5039116;28;20040;-80
2023/10/01 01:39:54;;;;;;;17.73;6.45;;;10.30;99.90;;;;;;5038872;28;20010;-82
2023/10/01 01:42:21;;;;;;;19.05;6.63;;;10.20;99.90;;;;;;5038724;28;20029;-82
2023/10/01 01:45:15;;;;;;;18.08;5.85;;;10.20;99.90;;;;;;5039187;28;20006;-82
2023/10/01 01:47:36;;;;;;;15.38;5.78;;;10.20;99.90;;;;;;5038757;28;20030;-82
2023/10/01 01:50:17;;;;;;;14.00;5.53;;;10.20;99.90;;;;;;5037978;28;20052;-81
2023/10/01 01:52:47;;;;;;;15.00;5.80;;;10.20;99.90;;;;;;5038625;28;20018;-81
2023/10/01 01:55:34;;;;;;;23.15;6.18;;;10.20;99.90;;;;;;5038230;28;20037;-83
2023/10/01 01:58:08;;;;;;;16.20;5.95;;;10.20;99.90;;;;;;5038709;28;20010;-82
2023/10/01 02:00:37;;;;;;;16.27;5.72;;;10.20;99.90;;;;;;5032226;28;20125;-81
2023/10/01 02:03:18;;;;;;;18.95;6.28;;;10.20;99.90;;;;;;5016608;28;20109;-82
2023/10/01 02:05:47;;;;;;;15.00;5.25;;;10.10;99.90;;;;;;5015582;28;20022;-82
2023/10/01 02:08:34;;;;;;;17.17;5.50;;;10.10;99.90;;;;;;5016611;28;20018;-81
2023/10/01 02:11:04;;;;;;;12.20;4.88;;;10.10;99.90;;;;;;5016790;28;20033;-81
2023/10/01 02:13:33;;;;;;;16.27;6.20;;;10.00;99.90;;;;;;5017568;28;20025;-81
2023/10/01 02:16:18;;;;;;;13.20;5.20;;;10.00;99.90;;;;;;5016454;28;20034;-80
2023/10/01 02:18:56;;;;;;;15.75;6.25;;;10.00;99.90;;;;;;5016069;28;20057;-81
2023/10/01 02:21:42;;;;;;;17.45;6.18;;;10.00;99.90;;;;;;5018164;28;20032;-81
2023/10/01 02:24:11;;;;;;;17.55;6.93;;;9.90;99.90;;;;;;5016796;28;20404;-82
2023/10/01 02:26:41;;;;;;;13.95;5.85;;;9.90;99.90;;;;;;5016284;28;20400;-83
2023/10/01 02:29:08;;;;;;;20.55;7.35;;;9.80;99.90;;;;;;5016875;28;20032;-82
2023/10/01 02:31:34;;;;;;;17.38;5.35;;;9.80;99.90;;;;;;5016960;28;20029;-82
2023/10/01 02:34:08;;;;;;;32.53;7.35;;;9.80;99.90;;;;;;5017756;28;20018;-82
2023/10/01 02:36:36;;;;;;;17.73;6.03;;;9.80;99.90;;;;;;5015004;28;20022;-83
2023/10/01 02:39:10;;;;;;;12.55;4.78;;;9.80;99.90;;;;;;5015053;28;20022;-81
2023/10/01 02:41:38;;;;;;;19.77;5.53;;;9.90;99.90;;;;;;5013579;28;20623;-82
2023/10/01 02:44:04;;;;;;;15.70;5.30;;;9.80;99.90;;;;;;5013971;28;20501;-82
2023/10/01 02:46:30;;;;;;;16.50;5.65;;;9.70;99.90;;;;;;5015816;28;20104;-82
2023/10/01 02:48:59;;;;;;;17.65;5.95;;;9.70;99.90;;;;;;5016391;28;20029;-81
2023/10/01 02:51:37;;;;;;;13.98;5.80;;;9.70;99.90;;;;;;5015872;28;20177;-82
2023/10/01 02:54:08;;;;;;;14.30;5.13;;;9.70;99.90;;;;;;5012561;28;20396;-81
2023/10/01 02:56:52;;;;;;;13.02;5.47;;;9.80;99.90;;;;;;5011903;28;20029;-81
2023/10/01 02:59:18;;;;;;;17.60;5.70;;;9.80;99.90;;;;;;5011724;28;20022;-81
2023/10/01 03:01:47;;;;;;;11.45;4.43;;;9.80;99.90;;;;;;5012146;28;20030;-81
2023/10/01 03:04:17;;;;;;;17.85;4.95;;;9.80;99.90;;;;;;5012360;28;20435;-81
2023/10/01 03:06:56;;;;;;;14.30;5.20;;;9.80;99.90;;;;;;5011833;28;20108;-81
2023/10/01 03:09:33;;;;;;;13.23;5.35;;;9.80;99.90;;;;;;5011548;28;20103;-81
2023/10/01 03:15:00;;;;;;;13.18;5.85;;;9.60;99.90;;;;;;5012819;28;20048;-81
2023/10/01 03:17:38;;;;;;;12.98;5.43;;;9.60;99.90;;;;;;5012739;28;20399;-81
2023/10/01 03:22:53;;;;;;;18.75;6.30;;;9.50;99.90;;;;;;5012916;28;20083;-81
2023/10/01 03:25:28;;;;;;;13.00;5.13;;;9.50;99.90;;;;;;5011903;28;20084;-81
2023/10/01 03:28:01;;;;;;;12.52;5.05;;;9.50;99.90;;;;;;5012033;28;20054;-81
2023/10/01 03:30:32;;;;;;;18.13;4.93;;;9.50;99.90;;;;;;5013013;28;20022;-82
2023/10/01 03:33:07;;;;;;;15.57;6.30;;;9.50;99.90;;;;;;5012121;28;20022;-82
2023/10/01 03:35:34;;;;;;;;;;;9.50;99.90;;;;;;5011941;28;20496;-81
2023/10/01 03:38:10;;;;;;;12.00;5.20;;;9.50;99.90;;;;;;5011420;28;19909;-81
2023/10/01 03:40:57;;;;;;;15.07;4.65;;;9.50;99.90;;;;;;5012620;28;20396;-81
2023/10/01 03:43:31;;;;;;;18.85;5.97;;;9.50;99.90;;;;;;5012331;28;20041;-82
2023/10/01 03:51:29;;;;;;;16.90;5.13;;;9.40;99.90;;;;;;5016963;28;20347;-81
2023/10/01 03:54:03;;;;;;;11.95;4.90;;;9.40;99.90;;;;;;5015077;28;20117;-82
2023/10/01 03:56:33;;;;;;;17.17;4.97;;;9.40;99.90;;;;;;5015221;28;20029;-81
2023/10/01 03:59:00;;;;;;;20.95;5.72;;;9.40;99.90;;;;;;5015002;28;20037;-81
2023/10/01 04:01:31;;;;;;;16.50;5.40;;;9.40;99.90;;;;;;5016182;28;20057;-82
2023/10/01 04:04:00;;;;;;;17.13;5.55;;;9.40;99.90;;;;;;5015067;28;20121;-81
2023/10/01 04:06:27;;;;;;;9.57;5.05;;;9.40;99.90;;;;;;5014714;28;20072;-82
2023/10/01 04:08:55;;;;;;;15.43;5.35;;;9.40;99.90;;;;;;5016037;28;20022;-79
2023/10/01 04:11:41;;;;;;;14.38;5.15;;;9.40;99.90;;;;;;5014827;28;20018;-81
2023/10/01 04:14:10;;;;;;;15.13;6.47;;;9.30;99.90;;;;;;5015995;28;20053;-79
2023/10/01 04:16:40;;;;;;;13.90;5.93;;;9.30;99.90;;;;;;5015659;28;20511;-80
2023/10/01 04:19:11;;;;;;;14.35;5.22;;;9.30;99.90;;;;;;5015965;28;20030;-80
2023/10/01 04:21:36;;;;;;;14.55;6.68;;;9.30;99.90;;;;;;5015779;28;20369;-80
2023/10/01 04:24:02;;;;;;;18.40;6.18;;;9.30;99.90;;;;;;5015052;28;20159;-80
2023/10/01 04:26:30;;;;;;;13.25;5.95;;;9.30;99.90;;;;;;5016115;28;20026;-80
2023/10/01 04:28:59;;;;;;;22.42;4.97;;;9.30;99.90;;;;;;5015651;28;20026;-80
2023/10/01 04:34:11;;;;;;;12.68;5.28;;;9.30;99.90;;;;;;5015956;28;20037;-80
2023/10/01 04:36:44;;;;;;;14.20;4.78;;;9.10;99.90;;;;;;5015831;28;20030;-79
2023/10/01 04:39:10;;;;;;;13.60;5.70;;;9.20;99.90;;;;;;5019321;28;20472;-79
2023/10/01 04:41:37;;;;;;;13.80;5.53;;;9.20;99.90;;;;;;5020345;28;20036;-79
2023/10/01 04:44:06;;;;;;;12.48;5.53;;;9.20;99.90;;;;;;5019796;28;20042;-79
2023/10/01 04:46:37;;;;;;;14.48;5.95;;;9.20;99.90;;;;;;5021311;28;20021;-79
2023/10/01 04:51:53;;;;;;;13.95;6.53;;;9.30;99.90;;;;;;5023254;28;20049;-80
2023/10/01 04:54:21;;;;;;;12.25;5.35;;;9.20;99.90;;;;;;5021569;28;20491;-80
2023/10/01 04:56:48;;;;;;;14.93;5.22;;;9.20;99.90;;;;;;5019927;28;20061;-80
2023/10/01 04:59:17;;;;;;;12.88;5.15;;;9.20;99.90;;;;;;5014663;28;20030;-81
2023/10/01 05:01:43;;;;;;;17.60;5.68;;;9.20;99.90;;;;;;5014900;28;20022;-80
2023/10/01 05:04:14;;;;;;;12.02;5.40;;;9.20;99.90;;;;;;5014453;28;20618;-81
2023/10/01 05:06:43;;;;;;;12.48;5.32;;;9.20;99.90;;;;;;5015637;28;20045;-81
2023/10/01 05:09:09;;;;;;;13.77;5.60;;;9.20;99.90;;;;;;5015903;28;20095;-80
2023/10/01 05:11:35;;;;;;;15.77;5.20;;;9.20;99.90;;;;;;5021139;28;20029;-82
2023/10/01 05:14:04;;;;;;;14.63;5.78;;;9.30;99.90;;;;;;5019718;28;20121;-81
2023/10/01 05:16:38;;;;;;;17.67;8.68;;;9.30;99.90;;;;;;5018848;28;20040;-81
2023/10/01 05:19:10;;;;;;;18.30;6.25;;;9.30;99.90;;;;;;5016533;28;20080;-81
2023/10/01 05:21:49;;;;;;;15.27;5.53;;;9.30;99.90;;;;;;5017690;28;20503;-82
2023/10/01 05:24:35;;;;;;;13.35;4.80;;;9.40;99.90;;;;;;5015110;28;20164;-80
2023/10/01 05:27:02;;;;;;;14.95;6.60;;;9.30;99.90;;;;;;5018617;28;20452;-80
2023/10/01 05:29:29;;;;;;;15.32;5.68;;;9.40;99.90;;;;;;5020573;28;20029;-80
2023/10/01 05:31:56;;;;;;;11.20;5.22;;;9.50;99.90;;;;;;5019662;28;20592;-80
2023/10/01 05:34:25;;;;;;;14.57;6.32;;;9.50;99.90;;;;;;5019630;28;20373;-80
2023/10/01 05:36:52;;;;;;;14.18;6.18;;;9.50;99.90;;;;;;5020217;28;20026;-80
2023/10/01 05:39:23;;;;;;;12.70;6.15;;;9.50;99.90;;;;;;5016956;28;20017;-80
2023/10/01 05:41:51;;;;;;;15.00;6.38;;;9.50;99.90;;;;;;5014051;28;20022;-81
2023/10/01 05:44:18;;;;;;;10.77;4.60;;;9.50;99.90;;;;;;5013413;28;20480;-81
2023/10/01 05:46:46;;;;;;;18.70;5.63;;;9.60;99.90;;;;;;5013193;28;20159;-81
2023/10/01 05:49:12;;;;;;;16.20;5.57;;;9.60;99.90;;;;;;5023515;28;20049;-82
2023/10/01 05:51:48;;;;;;;12.50;5.15;;;9.70;99.90;;;;;;5033474;28;20046;-81
2023/10/01 05:54:18;;;;;;;15.32;6.32;;;9.70;99.90;;;;;;5024253;28;20484;-81
2023/10/01 05:56:47;;;;;;;15.82;6.93;;;9.80;99.90;;;;;;5020556;28;20026;-81
2023/10/01 05:59:14;;;;;;;12.50;5.72;;;9.90;99.90;;;;;;5013385;28;20045;-80
2023/10/01 06:01:41;;;;;;;18.92;7.00;;;9.90;99.90;;;;;;5012975;28;20022;-80
2023/10/01 06:04:12;;;;;;;14.68;5.65;;;9.90;99.90;;;;;;5012969;28;20041;-80
2023/10/01 06:06:42;;;;;;;13.07;5.38;;;10.10;99.90;;;;;;5015341;28;20388;-80
2023/10/01 06:09:14;;;;;;;20.77;7.20;;;10.10;99.90;;;;;;5014074;28;20144;-80
2023/10/01 06:11:59;;;;;;;14.95;5.43;;;10.10;99.90;;;;;;5012435;28;20503;-80
2023/10/01 06:14:39;;;;;;;14.73;6.50;;;10.10;99.90;;;;;;5013839;28;20053;-80
2023/10/01 06:17:06;;;;;;;15.50;6.15;;;10.20;99.90;;;;;;5012662;28;20058;-81
2023/10/01 06:19:33;;;;;;;12.77;5.53;;;10.20;99.90;;;;;;5013164;28;20033;-81
2023/10/01 06:22:12;;;;;;;18.98;6.22;;;10.30;99.90;;;;;;5013104;28;20030;-81
2023/10/01 06:24:43;;;;;;;14.70;6.32;;;10.40;99.90;;;;;;5012223;28;20018;-81
2023/10/01 06:27:13;;;;;;;15.63;6.45;;;10.40;99.90;;;;;;5012277;28;20025;-80
2023/10/01 06:29:52;;;;;;;14.35;7.18;;;10.50;99.90;;;;;;5013589;28;20041;-81
2023/10/01 06:32:19;;;;;;;22.65;6.30;;;10.60;99.90;;;;;;5012415;28;20135;-81
2023/10/01 06:34:47;;;;;;;13.90;5.90;;;10.70;99.90;;;;;;5012802;28;20022;-81
2023/10/01 06:37:12;;;;;;;13.00;6.15;;;10.90;99.90;;;;;;5012447;28;20467;-81
2023/10/01 06:39:41;;;;;;;13.07;6.28;;;11.00;99.90;;;;;;5013363;28;20026;-81
2023/10/01 06:42:18;;;;;;;18.48;6.88;;;11.00;99.90;;;;;;5013774;28;20034;-81
2023/10/01 06:44:58;;;;;;;18.00;8.20;;;11.20;99.90;;;;;;5011876;28;20022;-80
2023/10/01 06:47:28;;;;;;;17.15;6.93;;;11.30;99.90;;;;;;5013325;28;20032;-81
2023/10/01 06:49:57;;;;;;;16.88;6.22;;;11.40;99.90;;;;;;5042839;23;20412;-75
2023/10/01 06:52:34;;;;;;;15.30;6.35;;;11.50;99.90;;;;;;5053480;28;20396;-77
2023/10/01 06:55:01;;;;;;;21.25;6.10;;;11.70;99.90;;;;;;5036775;28;20029;-76
2023/10/01 06:57:33;;;;;;;15.95;6.88;;;11.80;99.90;;;;;;5055234;28;20025;-78
2023/10/01 07:00:00;;;;;;;14.52;5.07;;;11.90;99.90;;;;;;5038666;28;20053;-77
2023/10/01 07:02:29;;;;;;;15.80;6.03;;;12.10;99.90;;;;;;5039831;28;20399;-78
2023/10/01 07:05:01;;;;;;;11.25;6.50;;;12.30;99.90;;;;;;5038559;28;20025;-77
2023/10/01 07:07:28;;;;;;;17.25;6.88;;;12.40;99.90;;;;;;5038343;28;20022;-78
2023/10/01 07:09:56;;;;;;;15.15;5.93;;;12.70;99.90;;;;;;5036831;28;20028;-76
2023/10/01 07:12:25;;;;;;;16.00;6.55;;;12.90;99.90;;;;;;5038078;28;20025;-77
2023/10/01 07:14:51;;;;;;;14.25;5.85;;;13.20;99.90;;;;;;5035701;28;20376;-77
2023/10/01 07:17:19;;;;;;;12.48;5.78;;;13.40;99.90;;;;;;5035236;28;20032;-79
2023/10/01 07:20:00;;;;;;;11.05;5.35;;;13.70;99.90;;;;;;5035902;28;20099;-79
2023/10/01 07:22:34;;;;;;;11.02;4.85;;;13.90;99.90;;;;;;5034440;28;20029;-80
2023/10/01 07:25:00;;;;;;;13.60;5.82;;;14.30;99.90;;;;;;5034157;28;20068;-78
2023/10/01 07:27:27;;;;;;;15.38;6.03;;;14.50;99.90;;;;;;5034478;28;20033;-78
2023/10/01 07:29:56;;;;;;;10.90;4.90;;;14.80;99.90;;;;;;5035538;28;20483;-78
2023/10/01 07:32:24;;;;;;;15.35;5.53;;;14.90;99.90;;;;;;5033455;28;20447;-78
2023/10/01 07:35:06;;;;;;;10.80;5.75;;;15.00;99.90;;;;;;5034949;28;20021;-79
2023/10/01 07:37:37;;;;;;;9.00;4.70;;;15.20;99.90;;;;;;5033331;28;20022;-77
2023/10/01 07:40:12;;;;;;;10.23;3.88;;;15.40;99.90;;;;;;5036472;28;20032;-78
2023/10/01 07:42:46;;;;;;;;;;;15.50;99.90;;;;;;5032821;28;20052;-78
2023/10/01 07:45:19;;;;;;;8.93;4.15;;;15.70;99.90;;;;;;5032852;28;19912;-77
2023/10/01 07:47:45;;;;;;;12.63;4.47;;;15.70;99.90;;;;;;5031674;28;20025;-77
2023/10/01 07:50:16;;;;;;;8.68;3.67;;;15.90;99.90;;;;;;5032520;28;20038;-79
2023/10/01 07:52:44;;;;;;;8.40;3.45;;;16.00;99.90;;;;;;5037337;28;20099;-79
2023/10/01 07:58:45;;;;;;;9.38;3.15;;;16.30;99.90;;;;;;5036998;28;20079;-78
2023/10/01 08:00:59;;;;;;;8.13;3.72;;;16.40;99.90;;;;;;5035637;28;20395;-80
2023/10/01 08:06:07;;;;;;;7.10;2.70;;;16.50;99.90;;;;;;5035865;28;20018;-77
2023/10/01 08:08:37;;;;;;;6.90;2.75;;;16.60;99.90;;;;;;5035595;28;20036;-77
2023/10/01 08:11:03;;;;;;;6.93;3.47;;;16.70;99.90;;;;;;5033889;28;20024;-77
2023/10/01 08:13:30;;;;;;;6.57;2.85;;;16.80;99.90;;;;;;5034685;28;20032;-77
2023/10/01 08:16:01;;;;;;;9.38;3.53;;;16.90;99.90;;;;;;5033856;28;20053;-78
2023/10/01 08:18:39;;;;;;;6.07;3.25;;;17.00;99.90;;;;;;5034546;28;20022;-78
2023/10/01 08:21:15;;;;;;;9.43;3.35;;;17.10;99.90;;;;;;5032878;28;20061;-78
2023/10/01 08:23:48;;;;;;;11.93;3.45;;;17.30;99.90;;;;;;5032304;28;20033;-78
2023/10/01 08:28:58;;;;;;;11.45;3.30;;;17.50;99.90;;;;;;5037792;28;20024;-81
2023/10/01 08:32:08;;;;;;;9.95;3.53;;;17.60;99.90;;;;;;5037849;28;20112;-80
2023/10/01 08:34:29;;;;;;;8.20;3.70;;;17.70;99.90;;;;;;5038539;28;20022;-80
2023/10/01 08:37:06;;;;;;;8.38;4.10;;;17.70;99.90;;;;;;5036872;28;20029;-78
2023/10/01 08:39:47;;;;;;;6.00;2.80;;;17.80;99.90;;;;;;5036007;28;20373;-78
2023/10/01 08:42:13;;;;;;;15.25;3.50;;;17.90;99.90;;;;;;5036603;28;20037;-79
2023/10/01 08:44:54;;;;;;;11.32;3.45;;;18.00;99.90;;;;;;5037621;28;20104;-78
2023/10/01 08:47:31;;;;;;;8.50;3.22;;;18.00;99.90;;;;;;5037692;28;20041;-79
2023/10/01 08:50:17;;;;;;;9.10;3.03;;;18.10;99.90;;;;;;5037469;28;20026;-77
2023/10/01 08:53:09;;;;;;;;;;;18.20;99.90;;;;;;5036709;28;20048;-78
2023/10/01 08:56:04;;;;;;;10.13;3.67;;;18.30;99.90;;;;;;5035570;28;20286;-78
2023/10/01 08:58:27;;;;;;;13.25;4.47;;;18.40;99.90;;;;;;5037330;28;20022;-78
2023/10/01 09:01:11;;;;;;;7.10;3.03;;;18.60;99.90;;;;;;5034539;28;20030;-78
2023/10/01 09:03:38;;;;;;;7.70;3.33;;;18.70;99.90;;;;;;5034835;28;20053;-79
2023/10/01 09:06:04;;;;;;;9.10;4.03;;;18.70;99.90;;;;;;5036256;28;20022;-78
2023/10/01 09:08:31;;;;;;;6.88;4.00;;;18.80;99.90;;;;;;5034635;28;20022;-78
2023/10/01 09:11:00;;;;;;;6.90;3.22;;;18.80;99.90;;;;;;5034786;28;20048;-78
2023/10/01 09:13:30;;;;;;;9.48;3.50;;;18.80;99.90;;;;;;5035809;28;20476;-78
2023/10/01 09:16:10;;;;;;;9.82;4.28;;;18.80;99.90;;;;;;5034755;28;20060;-77
2023/10/01 09:18:53;;;;;;;9.13;3.55;;;18.80;99.90;;;;;;5035873;28;20108;-78
2023/10/01 09:21:28;;;;;;;8.52;3.05;;;18.90;99.30;;;;;;5036326;28;20450;-81
2023/10/01 09:23:58;;;;;;;;;;;19.00;99.60;;;;;;5035365;28;20049;-78
2023/10/01 09:26:41;;;;;;;9.98;3.78;;;19.10;99.90;;;;;;5035156;28;19905;-77
2023/10/01 09:29:20;;;;;;;10.27;3.70;;;19.10;99.40;;;;;;5035428;28;20060;-76
2023/10/01 09:31:56;;;;;;;10.52;3.90;;;19.20;99.90;;;;;;5035013;28;20021;-77
2023/10/01 09:34:33;;;;;;;8.15;3.72;;;19.30;99.80;;;;;;5033259;28;20535;-76
2023/10/01 09:37:17;;;;;;;10.30;3.83;;;19.40;99.70;;;;;;5033031;28;20033;-77
2023/10/01 09:39:43;;;;;;;14.63;4.80;;;19.60;99.70;;;;;;5034115;28;20021;-77
2023/10/01 09:42:24;;;;;;;9.15;3.80;;;19.60;98.80;;;;;;5034565;28;20026;-77
2023/10/01 09:44:54;;;;;;;12.13;3.90;;;19.70;98.40;;;;;;5034187;28;20486;-78
2023/10/01 09:47:27;;;;;;;6.22;3.15;;;19.80;98.20;;;;;;5034096;28;20025;-77
2023/10/01 09:49:54;;;;;;;9.15;3.95;;;19.80;98.00;;;;;;5032464;28;20121;-78
2023/10/01 09:52:30;;;;;;;7.25;3.33;;;19.90;97.90;;;;;;5033717;28;20029;-77
2023/10/01 09:55:05;;;;;;;6.70;2.85;;;20.00;98.10;;;;;;5032424;28;20112;-78
2023/10/01 09:57:34;;;;;;;13.02;3.78;;;20.00;96.70;;;;;;5032667;28;20033;-75
2023/10/01 10:00:17;;;;;;;11.02;3.95;;;20.10;96.50;;;;;;5032244;28;20033;-76
2023/10/01 10:02:52;;;;;;;10.93;4.28;;;20.00;96.80;;;;;;5034301;28;20044;-77
2023/10/01 10:05:25;;;;;;;11.25;4.78;;;20.10;97.30;;;;;;5032116;28;20391;-75
2023/10/01 10:07:55;;;;;;;13.00;3.80;;;20.00;97.10;;;;;;5033597;28;20491;-77
2023/10/01 10:10:25;;;;;;;10.82;4.32;;;20.20;96.40;;;;;;5032444;28;20514;-78
2023/10/01 10:12:58;;;;;;;10.05;3.97;;;20.30;96.70;;;;;;5032375;28;20029;-77
2023/10/01 10:15:56;;;;;;;8.85;4.22;;;20.20;96.30;;;;;;5033840;28;20028;-76
2023/10/01 10:18:23;;;;;;;6.70;3.17;;;20.30;97.40;;;;;;5037611;28;20037;-77
2023/10/01 10:20:59;;;;;;;7.88;3.40;;;20.30;97.20;;;;;;5032644;28;20479;-78
2023/10/01 10:23:31;;;;;;;8.23;3.42;;;20.40;96.60;;;;;;5036266;28;20022;-77
2023/10/01 10:26:35;;;;;;;10.80;4.18;;;20.50;97.20;;;;;;5032011;28;20018;-75
2023/10/01 10:29:01;;;;;;;9.93;4.38;;;20.60;95.30;;;;;;5034579;28;20017;-78
2023/10/01 10:31:32;;;;;;;9.90;4.75;;;20.70;95.00;;;;;;5032937;28;20021;-79
2023/10/01 10:34:30;;;;;;;12.10;4.35;;;20.80;94.30;;;;;;5041014;28;20095;-78
2023/10/01 10:36:58;;;;;;;8.23;4.47;;;20.70;94.10;;;;;;5039800;28;20496;-77
2023/10/01 10:40:02;;;;;;;10.77;4.28;;;20.80;93.80;;;;;;5035172;28;20174;-75
2023/10/01 10:42:28;;;;;;;9.90;4.40;;;20.90;94.70;;;;;;5033637;28;20025;-77
2023/10/01 10:45:24;;;;;;;14.38;5.43;;;21.10;93.90;;;;;;5033903;28;20027;-77
2023/10/01 10:47:58;;;;;;;10.30;3.58;;;21.30;92.70;;;;;;5031942;28;20488;-76
2023/10/01 10:50:45;;;;;;;10.60;4.25;;;21.30;91.50;;;;;;5033169;28;20172;-79
2023/10/01 10:53:20;;;;;;;10.80;4.28;;;21.30;90.00;;;;;;5033148;28;20400;-77
2023/10/01 10:55:53;;;;;;;8.03;3.70;;;21.40;90.50;;;;;;5034719;28;20026;-77
2023/10/01 10:58:20;;;;;;;11.10;4.45;;;21.30;91.60;;;;;;5031070;28;20063;-76
2023/10/01 11:00:47;;;;;;;11.43;3.80;;;21.40;91.00;;;;;;5032570;28;20033;-77
2023/10/01 11:03:12;;;;;;;9.18;3.38;;;21.50;89.00;;;;;;5032530;28;20040;-76
2023/10/01 11:05:49;;;;;;;10.05;4.32;;;21.60;90.00;;;;;;5031159;28;20025;-76
2023/10/01 11:08:27;;;;;;;8.82;3.78;;;21.70;90.20;;;;;;5031234;28;20029;-78
2023/10/01 11:10:54;;;;;;;10.45;3.85;;;21.80;90.60;;;;;;5031292;28;20400;-76
2023/10/01 11:13:42;;;;;;;10.60;3.95;;;22.00;90.10;;;;;;5031010;28;20039;-78
2023/10/01 11:16:16;;;;;;;10.02;4.32;;;22.00;88.30;;;;;;5032478;28;20030;-77
2023/10/01 11:18:47;;;;;;;9.17;4.00;;;22.00;89.10;;;;;;5031497;28;20553;-76
2023/10/01 11:21:31;;;;;;;10.73;4.43;;;21.90;90.10;;;;;;5031557;28;20420;-77
2023/10/01 11:24:00;;;;;;;10.38;4.28;;;22.00;88.50;;;;;;5032651;28;20075;-77
2023/10/01 11:26:27;;;;;;;9.55;3.85;;;22.00;87.10;;;;;;5035199;28;20017;-77
2023/10/01 11:29:01;;;;;;;9.95;4.63;;;21.80;87.00;;;;;;5034721;28;20025;-78
2023/10/01 11:31:28;;;;;;;10.73;3.97;;;21.70;85.70;;;;;;5032281;28;20396;-77
2023/10/01 11:34:06;;;;;;;8.95;4.05;;;21.70;87.60;;;;;;5032112;28;20022;-77
2023/10/01 11:36:35;;;;;;;10.90;4.47;;;21.60;83.60;;;;;;5032092;28;20041;-78
2023/10/01 11:39:06;;;;;;;8.32;3.78;;;21.60;84.00;;;;;;5030725;28;20029;-76
2023/10/01 11:41:42;;;;;;;9.88;4.20;;;21.50;85.50;;;;;;5030790;28;20027;-78
2023/10/01 11:44:08;;;;;;;6.93;3.53;;;21.50;88.80;;;;;;5030626;28;20028;-78
2023/10/01 11:49:34;;;;;;;10.38;4.10;;;21.50;88.20;;;;;;5032093;28;20075;-76
2023/10/01 11:52:21;;;;;;;10.32;4.20;;;21.50;88.90;;;;;;5031145;28;20395;-77
2023/10/01 11:54:53;;;;;;;10.98;4.53;;;21.40;89.50;;;;;;5031801;28;20025;-77
2023/10/01 11:57:24;;;;;;;9.52;3.97;;;21.40;89.60;;;;;;5031856;28;20024;-76
2023/10/01 11:59:58;;;;;;;10.45;4.53;;;21.40;88.00;;;;;;5030608;28;20021;-77
2023/10/01 12:02:26;;;;;;;10.82;4.90;;;21.60;90.10;;;;;;5030559;28;20464;-76
2023/10/01 12:04:57;;;;;;;11.95;4.45;;;21.90;86.90;;;;;;5031673;28;20097;-78
2023/10/01 12:07:27;;;;;;;11.30;4.25;;;21.90;85.60;;;;;;5031836;28;20103;-77
2023/10/01 12:09:54;;;;;;;11.15;3.95;;;22.00;85.50;;;;;;5031882;28;20040;-77
2023/10/01 12:12:21;;;;;;;8.40;4.03;;;22.00;85.70;;;;;;5035677;28;20075;-76
2023/10/01 12:14:56;;;;;;;11.80;4.60;;;22.00;85.30;;;;;;5034225;28;20038;-76
2023/10/01 12:17:29;;;;;;;8.20;4.25;;;22.00;84.10;;;;;;5035745;28;20479;-76
2023/10/01 12:20:01;;;;;;;8.90;3.55;;;21.80;86.40;;;;;;5035673;28;20045;-77
2023/10/01 12:22:29;;;;;;;9.35;4.47;;;21.70;86.50;;;;;;5034266;28;20048;-76
2023/10/01 12:24:56;;;;;;;8.77;4.55;;;21.80;85.70;;;;;;5035203;28;20022;-78
2023/10/01 12:27:38;;;;;;;9.65;4.00;;;21.90;86.30;;;;;;5034316;28;20057;-76
2023/10/01 12:30:11;;;;;;;11.45;4.10;;;22.00;84.60;;;;;;5035513;28;20555;-78
2023/10/01 12:32:41;;;;;;;9.15;4.53;;;22.20;86.50;;;;;;5037587;28;20025;-78
2023/10/01 12:35:18;;;;;;;11.43;4.88;;;22.20;85.80;;;;;;5033894;28;20021;-78
2023/10/01 12:37:45;;;;;;;9.27;4.40;;;22.10;84.50;;;;;;5033979;28;20026;-77
2023/10/01 12:40:17;;;;;;;10.02;4.28;;;22.20;84.90;;;;;;5033802;28;20033;-76
2023/10/01 12:42:50;;;;;;;9.43;4.05;;;22.20;84.60;;;;;;5033631;28;20048;-77
2023/10/01 12:45:27;;;;;;;10.95;4.65;;;22.10;84.60;;;;;;5033418;28;20029;-78
2023/10/01 12:47:53;;;;;;;9.70;4.53;;;22.10;85.20;;;;;;5033881;28;20056;-78
2023/10/01 12:50:26;;;;;;;10.10;4.85;;;21.90;85.30;;;;;;5037414;28;20036;-81
2023/10/01 12:53:47;;;;;;;12.18;4.72;;;21.90;87.10;;;;;;5052139;28;20018;-78
2023/10/01 12:55:53;;;;;;;8.80;4.32;;;22.00;87.40;;;;;;5052093;28;20029;-79
2023/10/01 12:58:35;;;;;;;10.02;4.22;;;22.00;85.50;;;;;;5035019;28;20026;-78
2023/10/01 13:01:04;;;;;;;10.10;4.22;;;21.90;86.40;;;;;;5033755;28;20033;-79
2023/10/01 13:03:30;;;;;;;9.75;4.10;;;21.80;85.20;;;;;;5033865;28;20029;-79
2023/10/01 13:05:55;;;;;;;9.70;4.40;;;21.70;86.00;;;;;;5033495;28;20032;-77
2023/10/01 13:08:27;;;;;;;8.48;3.67;;;21.80;85.90;;;;;;5033685;28;20017;-79
2023/10/01 13:11:00;;;;;;;9.77;4.70;;;21.80;86.90;;;;;;5033692;28;20022;-78
2023/10/01 13:13:31;;;;;;;9.13;5.13;;;21.90;86.40;;;;;;5035008;28;20025;-78
2023/10/01 13:15:58;;;;;;;11.50;5.07;;;21.90;86.80;;;;;;5034651;28;20075;-78
2023/10/01 13:18:28;;;;;;;10.27;4.22;;;21.90;85.80;;;;;;5033496;28;20029;-78
2023/10/01 13:23:24;;;;;;;8.25;3.72;;;22.00;85.20;;;;;;5034781;28;20039;-77
2023/10/01 13:26:05;;;;;;;7.10;3.67;;;22.00;86.00;;;;;;5033181;28;20495;-79
2023/10/01 13:28:46;;;;;;;13.88;4.35;;;22.00;86.40;;;;;;5034397;28;20075;-78
2023/10/01 13:31:35;;;;;;;8.93;3.85;;;22.00;86.20;;;;;;5033267;28;20032;-79
2023/10/01 13:34:21;;;;;;;8.93;4.30;;;22.10;86.00;;;;;;5034290;28;20037;-78
2023/10/01 13:37:12;;;;;;;11.55;4.47;;;22.20;85.80;;;;;;5033069;28;20059;-78
2023/10/01 14:09:52;;;;;;;7.65;4.30;;;22.00;85.40;;;;;;5033959;28;20182;-79